createdAt,value
2019-05-09T00:00:13.611Z,98247.05
2019-05-09T00:02:40.550Z,98253.19
2019-05-09T00:05:07.428Z,98247.23
2019-05-09T00:07:34.297Z,98244.67
2019-05-09T00:10:04.100Z,98242.47
2019-05-09T00:12:30.736Z,98238.08
2019-05-09T00:14:57.665Z,98241.19
2019-05-09T00:17:25.510Z,98234.80
2019-05-09T00:19:53.935Z,98239.54
2019-05-09T00:22:20.953Z,98231.84
2019-05-09T00:24:47.919Z,98233.69
2019-05-09T00:27:14.928Z,98237.05
2019-05-09T00:29:43.862Z,98237.14
2019-05-09T00:32:10.485Z,98232.95
2019-05-09T00:34:37.381Z,98239.41
2019-05-09T00:37:04.666Z,98247.00
2019-05-09T00:39:31.604Z,98249.94
2019-05-09T00:41:58.486Z,98244.11
2019-05-09T00:44:25.433Z,98248.87
2019-05-09T00:46:53.500Z,98256.73
2019-05-09T00:49:20.600Z,98258.20
2019-05-09T00:51:47.583Z,98258.25
2019-05-09T00:54:14.559Z,98262.03
2019-05-09T00:56:43.479Z,98253.69
2019-05-09T00:59:13.326Z,98250.15
2019-05-09T01:01:39.609Z,98250.23
2019-05-09T01:04:06.498Z,98248.87
2019-05-09T01:06:33.977Z,98253.98
2019-05-09T01:09:01.285Z,98253.65
2019-05-09T01:11:28.264Z,98256.64
2019-05-09T01:13:55.253Z,98254.73
2019-05-09T01:16:24.081Z,98264.64
2019-05-09T01:18:50.750Z,98259.37
2019-05-09T01:21:17.720Z,98257.70
2019-05-09T01:23:44.714Z,98260.80
2019-05-09T01:26:13.237Z,98252.41
2019-05-09T01:28:40.326Z,98253.11
2019-05-09T01:31:07.217Z,98249.66
2019-05-09T01:33:34.172Z,98250.84
2019-05-09T01:36:03.462Z,98247.75
2019-05-09T01:38:29.722Z,98253.67
2019-05-09T01:40:56.583Z,98258.63
2019-05-09T01:43:24.433Z,98263.84
2019-05-09T01:45:51.412Z,98266.41
2019-05-09T01:48:18.353Z,98265.92
2019-05-09T01:50:45.340Z,98267.30
2019-05-09T01:53:13.392Z,98271.23
2019-05-09T01:55:40.738Z,98273.95
2019-05-09T01:58:07.624Z,98270.10
2019-05-09T02:00:34.576Z,98272.66
2019-05-09T02:03:03.254Z,98274.96
2019-05-09T02:05:30.396Z,98279.61
2019-05-09T02:07:57.342Z,98287.86
2019-05-09T02:10:24.291Z,98290.95
2019-05-09T02:12:51.231Z,98284.73
2019-05-09T02:15:18.126Z,98287.21
2019-05-09T02:17:57.766Z,98292.06
2019-05-09T02:20:13.810Z,98285.19
2019-05-09T02:22:40.789Z,98283.10
2019-05-09T02:25:07.677Z,98274.49
2019-05-09T02:27:34.562Z,98281.25
2019-05-09T02:30:05.448Z,98283.02
2019-05-09T02:32:30.124Z,98271.94
2019-05-09T02:34:57.414Z,98289.12
2019-05-09T02:37:24.365Z,98290.94
2019-05-09T02:39:51.623Z,98281.08
2019-05-09T02:42:19.639Z,98281.08
2019-05-09T02:44:49.245Z,98283.16
2019-05-09T02:47:17.894Z,98282.72
2019-05-09T02:49:44.335Z,98280.69
2019-05-09T02:52:11.230Z,98279.80
2019-05-09T02:54:39.226Z,98275.12
2019-05-09T02:57:09.331Z,98271.02
2019-05-09T02:59:35.024Z,98269.17
2019-05-09T03:02:01.976Z,98268.08
2019-05-09T03:04:28.835Z,98267.50
2019-05-09T03:06:55.731Z,98276.86
2019-05-09T03:09:23.586Z,98272.48
2019-05-09T03:11:50.452Z,98273.37
2019-05-09T03:14:19.402Z,98274.47
2019-05-09T03:16:48.836Z,98279.59
2019-05-09T03:19:14.817Z,98283.05
2019-05-09T03:21:41.713Z,98287.81
2019-05-09T03:24:09.887Z,98281.06
2019-05-09T03:26:38.617Z,98283.62
2019-05-09T03:29:08.570Z,98282.34
2019-05-09T03:31:34.260Z,98283.23
2019-05-09T03:34:01.208Z,98274.98
2019-05-09T03:36:28.233Z,98274.36
2019-05-09T03:38:55.228Z,98271.14
2019-05-09T03:41:22.441Z,98262.54
2019-05-09T03:43:49.298Z,98275.88
2019-05-09T03:46:18.043Z,98274.06
2019-05-09T03:48:44.769Z,98282.84
2019-05-09T03:51:11.705Z,98283.02
2019-05-09T03:53:38.647Z,98289.60
2019-05-09T03:56:07.812Z,98288.77
2019-05-09T03:58:34.444Z,98289.60
2019-05-09T04:01:01.403Z,98289.16
2019-05-09T04:03:28.376Z,98292.45
2019-05-09T04:06:01.944Z,98290.61
2019-05-09T04:08:23.901Z,98288.05
2019-05-09T04:10:50.790Z,98288.14
2019-05-09T04:13:18.046Z,98292.73
2019-05-09T04:15:47.723Z,98293.00
2019-05-09T04:18:14.812Z,98287.88
2019-05-09T04:20:41.678Z,98295.64
2019-05-09T04:23:08.554Z,98287.70
2019-05-09T04:25:37.558Z,98286.33
2019-05-09T04:28:04.358Z,98287.61
2019-05-09T04:30:32.364Z,98286.86
2019-05-09T04:32:59.305Z,98281.92
2019-05-09T04:35:27.989Z,98278.80
2019-05-09T04:37:54.792Z,98274.59
2019-05-09T04:40:22.044Z,98273.67
2019-05-09T04:42:48.984Z,98276.77
2019-05-09T04:45:17.719Z,98289.56
2019-05-09T04:47:44.477Z,98285.63
2019-05-09T04:50:15.394Z,98285.72
2019-05-09T04:52:40.041Z,98291.20
2019-05-09T04:55:07.869Z,98297.06
2019-05-09T04:57:34.976Z,98290.48
2019-05-09T05:00:01.839Z,98294.63
2019-05-09T05:02:28.789Z,98301.74
2019-05-09T05:04:58.364Z,98299.09
2019-05-09T05:07:24.632Z,98298.20
2019-05-09T05:09:51.575Z,98292.16
2019-05-09T05:12:18.815Z,98298.30
2019-05-09T05:14:47.614Z,98296.56
2019-05-09T05:17:17.771Z,98303.80
2019-05-09T05:19:43.944Z,98295.20
2019-05-09T05:22:10.823Z,98298.20
2019-05-09T05:24:38.217Z,98301.95
2019-05-09T05:27:05.501Z,98305.27
2019-05-09T05:29:32.383Z,98311.88
2019-05-09T05:31:59.433Z,98319.38
2019-05-09T05:34:27.422Z,98318.72
2019-05-09T05:36:54.440Z,98326.97
2019-05-09T05:39:21.319Z,98324.80
2019-05-09T05:41:48.509Z,98327.27
2019-05-09T05:44:17.814Z,98327.53
2019-05-09T05:46:48.340Z,98328.38
2019-05-09T05:49:13.591Z,98330.93
2019-05-09T05:51:40.453Z,98335.40
2019-05-09T05:54:07.831Z,98341.05
2019-05-09T05:56:34.837Z,98338.89
2019-05-09T05:59:01.791Z,98337.13
2019-05-09T06:01:28.820Z,98341.27
2019-05-09T06:03:55.776Z,98342.02
2019-05-09T06:06:22.734Z,98338.08
2019-05-09T06:08:49.606Z,98337.52
2019-05-09T06:11:17.859Z,98336.53
2019-05-09T06:13:54.549Z,98344.12
2019-05-09T06:16:13.652Z,98343.53
2019-05-09T06:18:40.607Z,98341.14
2019-05-09T06:21:08.816Z,98340.97
2019-05-09T06:23:37.415Z,98338.96
2019-05-09T06:26:04.579Z,98344.09
2019-05-09T06:28:31.686Z,98341.17
2019-05-09T06:30:58.732Z,98342.72
2019-05-09T06:33:28.547Z,98341.88
2019-05-09T06:35:55.249Z,98337.05
2019-05-09T06:38:22.152Z,98344.27
2019-05-09T06:40:49.069Z,98339.05
2019-05-09T06:43:18.143Z,98339.88
2019-05-09T06:45:44.794Z,98339.44
2019-05-09T06:48:11.729Z,98337.77
2019-05-09T06:50:38.625Z,98340.98
2019-05-09T06:53:07.820Z,98332.03
2019-05-09T06:55:34.280Z,98330.19
2019-05-09T06:58:01.228Z,98335.41
2019-05-09T07:00:28.390Z,98333.50
2019-05-09T07:02:57.577Z,98331.77
2019-05-09T07:05:23.931Z,98331.28
2019-05-09T07:07:50.818Z,98338.17
2019-05-09T07:10:17.887Z,98336.59
2019-05-09T07:12:44.823Z,98327.36
2019-05-09T07:15:11.810Z,98332.84
2019-05-09T07:17:39.033Z,98325.45
2019-05-09T07:20:08.419Z,98329.11
2019-05-09T07:22:34.618Z,98336.06
2019-05-09T07:25:06.800Z,98341.10
2019-05-09T07:27:30.165Z,98337.42
2019-05-09T07:29:58.218Z,98340.82
2019-05-09T07:32:27.724Z,98333.67
2019-05-09T07:34:54.386Z,98335.45
2019-05-09T07:37:21.355Z,98340.73
2019-05-09T07:39:48.492Z,98335.52
2019-05-09T07:42:17.882Z,98334.58
2019-05-09T07:44:48.378Z,98337.34
2019-05-09T07:47:12.679Z,98334.23
2019-05-09T07:49:39.573Z,98331.48
2019-05-09T07:52:09.928Z,98330.35
2019-05-09T07:54:37.540Z,98333.02
2019-05-09T07:57:03.667Z,98332.76
2019-05-09T07:59:31.225Z,98332.18
2019-05-09T08:01:58.434Z,98324.58
2019-05-09T08:04:28.418Z,98331.28
2019-05-09T08:06:54.242Z,98337.86
2019-05-09T08:09:21.132Z,98342.44
2019-05-09T08:11:48.437Z,98346.29
2019-05-09T08:14:17.623Z,98337.81
2019-05-09T08:16:44.059Z,98342.59
2019-05-09T08:19:10.952Z,98333.81
2019-05-09T08:21:38.490Z,98339.87
2019-05-09T08:24:08.172Z,98339.78
2019-05-09T08:26:34.433Z,98346.99
2019-05-09T08:29:01.306Z,98349.95
2019-05-09T08:31:28.348Z,98349.37
2019-05-09T08:33:55.328Z,98344.97
2019-05-09T08:36:22.239Z,98348.17
2019-05-09T08:38:49.197Z,98353.95
2019-05-09T08:41:18.408Z,98361.00
2019-05-09T08:43:44.735Z,98357.16
2019-05-09T08:46:11.721Z,98349.81
2019-05-09T08:48:38.615Z,98353.22
2019-05-09T08:51:05.494Z,98361.55
2019-05-09T08:53:33.328Z,98359.05
2019-05-09T08:56:00.554Z,98364.75
2019-05-09T08:58:27.827Z,98368.26
2019-05-09T09:00:54.764Z,98354.79
2019-05-09T09:03:22.053Z,98362.78
2019-05-09T09:05:48.945Z,98362.48
2019-05-09T09:08:18.127Z,98360.82
2019-05-09T09:10:44.488Z,98363.93
2019-05-09T09:13:11.406Z,98359.44
2019-05-09T09:16:02.315Z,98362.55
2019-05-09T09:18:08.549Z,98362.16
2019-05-09T09:20:38.011Z,98360.02
2019-05-09T09:23:04.418Z,98362.68
2019-05-09T09:25:31.358Z,98350.76
2019-05-09T09:27:58.546Z,98348.34
2019-05-09T09:30:29.277Z,98347.59
2019-05-09T09:32:55.214Z,98342.80
2019-05-09T09:35:22.169Z,98348.13
2019-05-09T09:37:52.136Z,98352.86
2019-05-09T09:40:17.889Z,98344.39
2019-05-09T09:42:44.994Z,98342.56
2019-05-09T09:45:11.916Z,98343.06
2019-05-09T09:47:39.947Z,98342.30
2019-05-09T09:50:08.866Z,98345.59
2019-05-09T09:52:38.215Z,98344.49
2019-05-09T09:55:04.441Z,98348.41
2019-05-09T09:57:31.657Z,98352.48
2019-05-09T09:59:58.578Z,98350.53
2019-05-09T10:02:27.946Z,98355.85
2019-05-09T10:04:55.023Z,98357.84
2019-05-09T10:07:21.894Z,98352.88
2019-05-09T10:09:48.848Z,98351.83
2019-05-09T10:12:18.057Z,98350.34
2019-05-09T10:14:44.416Z,98350.23
2019-05-09T10:17:11.376Z,98349.54
2019-05-09T10:19:38.682Z,98346.03
2019-05-09T10:22:08.277Z,98343.01
2019-05-09T10:24:34.862Z,98341.14
2019-05-09T10:27:01.817Z,98345.27
2019-05-09T10:29:28.762Z,98342.59
2019-05-09T10:31:57.733Z,98338.64
2019-05-09T10:34:24.201Z,98339.58
2019-05-09T10:36:51.069Z,98344.64
2019-05-09T10:39:18.733Z,98343.67
2019-05-09T10:41:48.115Z,98338.35
2019-05-09T10:44:14.393Z,98334.01
2019-05-09T10:46:52.468Z,98337.23
2019-05-09T10:49:09.833Z,98332.83
2019-05-09T10:51:36.788Z,98328.87
2019-05-09T10:54:03.780Z,98323.14
2019-05-09T10:56:30.721Z,98323.52
2019-05-09T10:58:58.511Z,98319.45
2019-05-09T11:01:25.732Z,98317.97
2019-05-09T11:03:52.645Z,98323.45
2019-05-09T11:06:19.652Z,98318.31
2019-05-09T11:08:47.623Z,98320.78
2019-05-09T11:11:14.943Z,98322.55
2019-05-09T11:13:42.833Z,98316.33
2019-05-09T11:16:09.769Z,98313.66
2019-05-09T11:18:36.675Z,98309.39
2019-05-09T11:21:03.783Z,98306.43
2019-05-09T11:23:30.705Z,98311.26
2019-05-09T11:25:58.147Z,98307.78
2019-05-09T11:28:25.113Z,98315.11
2019-05-09T11:30:52.122Z,98312.19
2019-05-09T11:33:20.178Z,98307.50
2019-05-09T11:35:47.966Z,98297.50
2019-05-09T11:38:29.355Z,98300.08
2019-05-09T11:40:43.735Z,98302.30
2019-05-09T11:43:10.701Z,98305.56
2019-05-09T11:45:38.854Z,98296.88
2019-05-09T11:48:08.136Z,98301.70
2019-05-09T11:50:34.511Z,98299.48
2019-05-09T11:53:01.478Z,98301.14
2019-05-09T11:55:35.667Z,98298.19
2019-05-09T11:57:59.046Z,98302.16
2019-05-09T12:00:25.867Z,98304.10
2019-05-09T12:02:52.758Z,98305.04
2019-05-09T12:05:19.710Z,98303.48
2019-05-09T12:07:46.684Z,98304.77
2019-05-09T12:10:13.542Z,98313.77
2019-05-09T12:12:40.417Z,98313.03
2019-05-09T12:15:08.818Z,98319.56
2019-05-09T12:17:53.127Z,98318.39
2019-05-09T12:20:12.226Z,98313.55
2019-05-09T12:22:33.109Z,98317.03
2019-05-09T12:25:00.062Z,98316.33
2019-05-09T12:27:28.041Z,98315.19
2019-05-09T12:29:55.189Z,98307.65
2019-05-09T12:32:22.445Z,98306.05
2019-05-09T12:34:49.385Z,98310.80
2019-05-09T12:37:18.219Z,98309.06
2019-05-09T12:39:47.823Z,98303.33
2019-05-09T12:42:13.806Z,98306.98
2019-05-09T12:44:40.770Z,98311.73
2019-05-09T12:47:07.718Z,98305.23
2019-05-09T12:49:34.645Z,98305.39
2019-05-09T12:52:01.530Z,98303.89
2019-05-09T12:54:28.418Z,98301.34
2019-05-09T12:56:55.385Z,98304.30
2019-05-09T12:59:22.340Z,98293.60
2019-05-09T13:01:49.546Z,98297.25
2019-05-09T13:04:17.527Z,98294.67
2019-05-09T13:06:44.497Z,98291.55
2019-05-09T13:09:11.380Z,98293.73
2019-05-09T13:11:39.113Z,98292.45
2019-05-09T13:14:09.656Z,98296.07
2019-05-09T13:16:45.465Z,98293.30
2019-05-09T13:19:04.550Z,98291.95
2019-05-09T13:21:32.824Z,98292.58
2019-05-09T13:24:00.290Z,98287.33
2019-05-09T13:26:28.924Z,98290.87
2019-05-09T13:28:58.641Z,98289.80
2019-05-09T13:31:24.675Z,98292.37
2019-05-09T13:33:51.544Z,98285.03
2019-05-09T13:36:19.400Z,98285.05
2019-05-09T13:38:56.378Z,98291.44
2019-05-09T13:41:14.927Z,98286.08
2019-05-09T13:43:46.902Z,98285.59
2019-05-09T13:46:10.391Z,98289.83
2019-05-09T13:48:59.009Z,98292.40
2019-05-09T13:51:07.705Z,98288.54
2019-05-09T13:53:34.502Z,98287.69
2019-05-09T13:56:01.425Z,98286.80
2019-05-09T13:58:28.490Z,98282.08
2019-05-09T14:01:01.687Z,98283.26
2019-05-09T14:03:24.070Z,98284.44
2019-05-09T14:05:52.254Z,98292.37
2019-05-09T14:08:19.118Z,98295.00
2019-05-09T14:10:48.365Z,98286.69
2019-05-09T14:13:15.401Z,98285.78
2019-05-09T14:15:44.070Z,98290.81
2019-05-09T14:18:10.867Z,98291.89
2019-05-09T14:20:37.875Z,98288.27
2019-05-09T14:23:04.903Z,98291.45
2019-05-09T14:25:31.857Z,98293.47
2019-05-09T14:27:58.884Z,98287.38
2019-05-09T14:30:27.560Z,98286.09
2019-05-09T14:32:54.455Z,98286.48
2019-05-09T14:35:21.462Z,98294.08
2019-05-09T14:37:54.434Z,98298.05
2019-05-09T14:40:21.316Z,98296.49
2019-05-09T14:42:49.510Z,98288.32
2019-05-09T14:45:18.086Z,98281.78
2019-05-09T14:47:45.186Z,98282.96
2019-05-09T14:50:12.053Z,98284.59
2019-05-09T14:52:38.920Z,98286.84
2019-05-09T14:55:08.200Z,98285.72
2019-05-09T14:57:35.420Z,98283.03
2019-05-09T15:00:02.373Z,98293.11
2019-05-09T15:02:29.368Z,98291.26
2019-05-09T15:04:58.508Z,98283.66
2019-05-09T15:07:24.913Z,98286.88
2019-05-09T15:09:53.846Z,98281.62
2019-05-09T15:12:20.436Z,98286.05
2019-05-09T15:14:47.999Z,98281.28
2019-05-09T15:17:15.040Z,98280.34
2019-05-09T15:19:56.487Z,98282.45
2019-05-09T15:22:10.569Z,98277.77
2019-05-09T15:24:38.856Z,98283.12
2019-05-09T15:27:06.041Z,98279.00
2019-05-09T15:29:33.301Z,98278.73
2019-05-09T15:32:04.654Z,98276.27
2019-05-09T15:34:29.019Z,98280.35
2019-05-09T15:36:58.193Z,98277.16
2019-05-09T15:39:24.530Z,98273.17
2019-05-09T15:41:51.402Z,98275.59
2019-05-09T15:44:23.085Z,98276.88
2019-05-09T15:46:50.836Z,98279.10
2019-05-09T15:49:28.510Z,98274.52
2019-05-09T15:51:54.776Z,98269.03
2019-05-09T15:54:21.650Z,98264.45
2019-05-09T15:56:48.620Z,98261.04
2019-05-09T15:59:17.869Z,98263.61
2019-05-09T16:01:44.339Z,98261.88
2019-05-09T16:04:11.352Z,98257.19
2019-05-09T16:06:39.112Z,98255.34
2019-05-09T16:09:11.600Z,98256.89
2019-05-09T16:11:34.984Z,98261.44
2019-05-09T16:14:03.211Z,98259.70
2019-05-09T16:16:30.696Z,98257.58
2019-05-09T16:18:58.781Z,98259.91
2019-05-09T16:21:27.533Z,98255.60
2019-05-09T16:23:54.231Z,98257.23
2019-05-09T16:26:21.125Z,98254.42
2019-05-09T16:28:48.738Z,98255.82
2019-05-09T16:31:17.005Z,98260.86
2019-05-09T16:33:47.576Z,98258.84
2019-05-09T16:36:13.805Z,98253.81
2019-05-09T16:38:45.761Z,98253.33
2019-05-09T16:41:09.321Z,98260.02
2019-05-09T16:43:38.159Z,98259.30
2019-05-09T16:46:07.428Z,98254.53
2019-05-09T16:48:33.622Z,98256.84
2019-05-09T16:51:04.118Z,98257.89
2019-05-09T16:53:29.072Z,98259.17
2019-05-09T16:55:57.826Z,98259.97
2019-05-09T16:58:27.335Z,98254.83
2019-05-09T17:00:53.533Z,98257.16
2019-05-09T17:03:20.488Z,98259.02
2019-05-09T17:05:47.375Z,98257.38
2019-05-09T17:08:14.309Z,98255.72
2019-05-09T17:10:41.180Z,98254.81
2019-05-09T17:13:08.080Z,98259.95
2019-05-09T17:15:34.961Z,98259.58
2019-05-09T17:18:01.955Z,98262.25
2019-05-09T17:20:28.861Z,98260.52
2019-05-09T17:23:08.244Z,98267.29
2019-05-09T17:25:24.380Z,98266.94
2019-05-09T17:27:51.651Z,98269.86
2019-05-09T17:30:18.796Z,98272.44
2019-05-09T17:32:47.480Z,98272.44
2019-05-09T17:35:14.935Z,98275.59
2019-05-09T17:37:42.177Z,98270.67
2019-05-09T17:40:09.064Z,98280.95
2019-05-09T17:42:38.041Z,98275.92
2019-05-09T17:45:05.003Z,98276.38
2019-05-09T17:47:32.232Z,98280.34
2019-05-09T17:49:59.648Z,98283.82
2019-05-09T17:52:26.938Z,98288.38
2019-05-09T17:54:54.224Z,98291.85
2019-05-09T17:57:21.229Z,98291.05
2019-05-09T17:59:48.964Z,98291.95
2019-05-09T18:02:17.538Z,98298.88
2019-05-09T18:04:44.669Z,98290.78
2019-05-09T18:07:11.585Z,98294.72
2019-05-09T18:09:38.483Z,98298.30
2019-05-09T18:12:05.385Z,98296.77
2019-05-09T18:14:32.328Z,98297.78
2019-05-09T18:16:59.322Z,98301.36
2019-05-09T18:19:28.634Z,98299.00
2019-05-09T18:21:57.456Z,98296.08
2019-05-09T18:24:24.348Z,98298.48
2019-05-09T18:26:51.230Z,98302.09
2019-05-09T18:29:18.493Z,98297.06
2019-05-09T18:31:45.358Z,98303.48
2019-05-09T18:34:12.594Z,98306.95
2019-05-09T18:36:39.476Z,98310.36
2019-05-09T18:39:07.743Z,98314.77
2019-05-09T18:41:34.821Z,98315.22
2019-05-09T18:44:01.973Z,98317.66
2019-05-09T18:46:28.847Z,98313.06
2019-05-09T18:48:55.744Z,98322.17
2019-05-09T18:51:22.706Z,98317.96
2019-05-09T18:53:49.658Z,98318.97
2019-05-09T18:56:16.602Z,98317.44
2019-05-09T18:58:43.565Z,98321.74
2019-05-09T19:01:10.552Z,98323.41
2019-05-09T19:03:37.540Z,98325.04
2019-05-09T19:06:04.436Z,98326.33
2019-05-09T19:08:31.472Z,98331.12
2019-05-09T19:10:58.729Z,98340.66
2019-05-09T19:13:25.700Z,98352.58
2019-05-09T19:15:52.659Z,98358.00
2019-05-09T19:18:19.673Z,98358.25
2019-05-09T19:20:46.640Z,98352.10
2019-05-09T19:23:13.584Z,98352.20
2019-05-09T19:25:40.626Z,98354.70
2019-05-09T19:28:07.573Z,98345.80
2019-05-09T19:30:34.461Z,98348.38
2019-05-09T19:33:01.419Z,98352.78
2019-05-09T19:35:28.335Z,98350.21
2019-05-09T19:37:55.644Z,98351.14
2019-05-09T19:40:22.605Z,98357.88
2019-05-09T19:42:49.477Z,98359.63
2019-05-09T19:45:16.431Z,98360.03
2019-05-09T19:47:43.322Z,98361.52
2019-05-09T19:50:10.264Z,98360.44
2019-05-09T19:52:38.648Z,98361.92
2019-05-09T19:55:05.838Z,98362.47
2019-05-09T19:57:32.894Z,98367.98
2019-05-09T19:59:59.958Z,98366.12
2019-05-09T20:02:26.822Z,98369.97
2019-05-09T20:04:53.694Z,98366.22
2019-05-09T20:07:20.942Z,98368.98
2019-05-09T20:09:47.929Z,98373.97
2019-05-09T20:12:15.122Z,98372.78
2019-05-09T20:14:42.026Z,98375.70
2019-05-09T20:17:09.366Z,98370.38
2019-05-09T20:19:36.418Z,98375.33
2019-05-09T20:22:03.532Z,98377.90
2019-05-09T20:24:30.462Z,98384.41
2019-05-09T20:26:57.821Z,98379.70
2019-05-09T20:29:24.864Z,98387.95
2019-05-09T20:31:51.770Z,98387.75
2019-05-09T20:34:20.349Z,98383.55
2019-05-09T20:36:47.233Z,98390.70
2019-05-09T20:39:14.529Z,98383.98
2019-05-09T20:41:41.432Z,98386.45
2019-05-09T20:44:08.714Z,98388.47
2019-05-09T20:46:35.967Z,98382.15
2019-05-09T20:49:02.996Z,98383.05
2019-05-09T20:51:30.083Z,98387.00
2019-05-09T20:53:57.052Z,98390.16
2019-05-09T20:56:23.939Z,98392.72
2019-05-09T20:58:50.889Z,98396.74
2019-05-09T21:01:17.900Z,98391.00
2019-05-09T21:03:58.933Z,98388.53
2019-05-09T21:06:13.519Z,98393.28
2019-05-09T21:08:40.429Z,98395.31
2019-05-09T21:11:07.664Z,98399.53
2019-05-09T21:13:47.368Z,98400.47
2019-05-09T21:16:03.478Z,98401.88
2019-05-09T21:18:30.631Z,98409.13
2019-05-09T21:20:57.724Z,98410.80
2019-05-09T21:23:25.192Z,98411.53
2019-05-09T21:25:52.243Z,98410.25
2019-05-09T21:28:19.540Z,98410.61
2019-05-09T21:30:46.428Z,98416.50
2019-05-09T21:33:13.317Z,98420.16
2019-05-09T21:35:40.295Z,98421.98
2019-05-09T21:38:07.238Z,98425.56
2019-05-09T21:40:34.208Z,98420.88
2019-05-09T21:43:01.156Z,98420.36
2019-05-09T21:45:28.142Z,98420.91
2019-05-09T21:47:55.001Z,98428.60
2019-05-09T21:50:22.956Z,98430.78
2019-05-09T21:52:49.919Z,98434.37
2019-05-09T21:55:16.862Z,98435.74
2019-05-09T21:57:43.725Z,98437.47
2019-05-09T22:00:10.596Z,98439.77
2019-05-09T22:02:39.089Z,98433.52
2019-05-09T22:05:05.972Z,98436.80
2019-05-09T22:07:32.935Z,98444.30
2019-05-09T22:09:59.860Z,98452.06
2019-05-09T22:12:26.738Z,98454.72
2019-05-09T22:14:54.782Z,98453.73
2019-05-09T22:17:21.720Z,98458.59
2019-05-09T22:19:48.676Z,98466.09
2019-05-09T22:22:15.626Z,98465.17
2019-05-09T22:24:42.528Z,98467.56
2019-05-09T22:27:09.479Z,98467.02
2019-05-09T22:29:37.318Z,98469.84
2019-05-09T22:32:04.221Z,98472.42
2019-05-09T22:34:31.585Z,98470.69
2019-05-09T22:36:58.479Z,98467.38
2019-05-09T22:39:26.024Z,98471.78
2019-05-09T22:41:52.978Z,98472.89
2019-05-09T22:44:19.932Z,98474.71
2019-05-09T22:46:46.904Z,98482.77
2019-05-09T22:49:13.835Z,98481.96
2019-05-09T22:51:40.706Z,98484.14
2019-05-09T22:54:12.703Z,98482.05
2019-05-09T22:56:36.167Z,98483.69
2019-05-09T22:59:03.123Z,98481.66
2019-05-09T23:01:30.028Z,98487.06
2019-05-09T23:03:58.022Z,98483.84
2019-05-09T23:06:24.909Z,98487.52
2019-05-09T23:08:51.866Z,98493.09
2019-05-09T23:11:18.784Z,98495.56
2019-05-09T23:13:45.752Z,98496.45
2019-05-09T23:16:12.676Z,98493.41
2019-05-09T23:18:39.553Z,98493.58
2019-05-09T23:21:06.489Z,98493.02
2019-05-09T23:23:33.434Z,98496.20
2019-05-09T23:26:00.384Z,98491.91
2019-05-09T23:28:27.324Z,98498.40
2019-05-09T23:30:54.269Z,98500.97
2019-05-09T23:33:21.233Z,98501.86
2019-05-09T23:35:48.196Z,98504.59
2019-05-09T23:38:15.141Z,98506.61
2019-05-09T23:40:42.022Z,98513.29
2019-05-09T23:43:08.898Z,98513.11
2019-05-09T23:45:35.766Z,98515.67
2019-05-09T23:48:02.656Z,98509.63
2019-05-09T23:50:29.609Z,98506.09
2019-05-09T23:52:56.528Z,98511.96
2019-05-09T23:55:23.384Z,98509.67
2019-05-09T23:57:50.256Z,98505.83
